sensor_id;sensor_type;location;lat;lon;timestamp;P1;durP1;ratioP1;P2;durP2;ratioP2
63379;SDS011;53160;55.014;73.156;2022-12-18T00:01:24;19.80;;;16.80;;
63379;SDS011;53160;55.014;73.156;2022-12-18T00:03:52;28.60;;;22.00;;
63379;SDS011;53160;55.014;73.156;2022-12-18T00:06:29;35.20;;;29.20;;
63379;SDS011;53160;55.014;73.156;2022-12-18T00:08:56;34.00;;;25.80;;
63379;SDS011;53160;55.014;73.156;2022-12-18T00:11:24;12.60;;;4.00;;
63379;SDS011;53160;55.014;73.156;2022-12-18T00:13:50;30.00;;;24.00;;
63379;SDS011;53160;55.014;73.156;2022-12-18T00:16:18;35.20;;;28.00;;
63379;SDS011;53160;55.014;73.156;2022-12-18T00:18:46;26.00;;;20.00;;
63379;SDS011;53160;55.014;73.156;2022-12-18T00:21:22;24.60;;;18.40;;
63379;SDS011;53160;55.014;73.156;2022-12-18T00:23:49;26.80;;;22.60;;
63379;SDS011;53160;55.014;73.156;2022-12-18T00:26:16;34.40;;;22.80;;
63379;SDS011;53160;55.014;73.156;2022-12-18T00:28:53;22.20;;;17.00;;
63379;SDS011;53160;55.014;73.156;2022-12-18T00:31:22;30.40;;;25.40;;
63379;SDS011;53160;55.014;73.156;2022-12-18T00:33:54;24.60;;;23.20;;
63379;SDS011;53160;55.014;73.156;2022-12-18T00:36:21;33.40;;;23.80;;
63379;SDS011;53160;55.014;73.156;2022-12-18T00:38:51;24.20;;;19.60;;
63379;SDS011;53160;55.014;73.156;2022-12-18T00:41:28;27.40;;;22.40;;
63379;SDS011;53160;55.014;73.156;2022-12-18T00:44:14;28.20;;;24.20;;
63379;SDS011;53160;55.014;73.156;2022-12-18T00:46:44;22.20;;;18.60;;
63379;SDS011;53160;55.014;73.156;2022-12-18T00:49:11;27.00;;;20.60;;
63379;SDS011;53160;55.014;73.156;2022-12-18T00:51:37;27.00;;;21.60;;
63379;SDS011;53160;55.014;73.156;2022-12-18T00:54:03;23.20;;;18.60;;
63379;SDS011;53160;55.014;73.156;2022-12-18T00:56:36;20.00;;;12.20;;
63379;SDS011;53160;55.014;73.156;2022-12-18T00:59:03;26.60;;;23.00;;
63379;SDS011;53160;55.014;73.156;2022-12-18T01:01:40;17.60;;;13.00;;
63379;SDS011;53160;55.014;73.156;2022-12-18T01:04:07;21.20;;;18.20;;
63379;SDS011;53160;55.014;73.156;2022-12-18T01:06:33;23.60;;;16.20;;
63379;SDS011;53160;55.014;73.156;2022-12-18T01:08:59;23.60;;;22.00;;
63379;SDS011;53160;55.014;73.156;2022-12-18T01:11:25;22.00;;;19.40;;
63379;SDS011;53160;55.014;73.156;2022-12-18T01:13:53;26.60;;;22.40;;
63379;SDS011;53160;55.014;73.156;2022-12-18T01:16:22;31.00;;;24.40;;
63379;SDS011;53160;55.014;73.156;2022-12-18T01:18:50;28.80;;;22.40;;
63379;SDS011;53160;55.014;73.156;2022-12-18T01:21:16;18.60;;;13.80;;
63379;SDS011;53160;55.014;73.156;2022-12-18T01:23:43;18.80;;;16.00;;
63379;SDS011;53160;55.014;73.156;2022-12-18T01:26:13;17.00;;;12.60;;
63379;SDS011;53160;55.014;73.156;2022-12-18T01:28:39;18.40;;;12.40;;
63379;SDS011;53160;55.014;73.156;2022-12-18T01:31:13;36.00;;;23.60;;
63379;SDS011;53160;55.014;73.156;2022-12-18T01:33:40;27.60;;;22.20;;
63379;SDS011;53160;55.014;73.156;2022-12-18T01:36:06;20.20;;;15.60;;
63379;SDS011;53160;55.014;73.156;2022-12-18T01:38:33;27.20;;;19.80;;
63379;SDS011;53160;55.014;73.156;2022-12-18T01:41:00;29.20;;;24.80;;
63379;SDS011;53160;55.014;73.156;2022-12-18T01:46:13;24.80;;;18.80;;
63379;SDS011;53160;55.014;73.156;2022-12-18T01:48:39;20.80;;;20.20;;
63379;SDS011;53160;55.014;73.156;2022-12-18T01:51:07;20.20;;;18.40;;
63379;SDS011;53160;55.014;73.156;2022-12-18T01:53:44;31.40;;;24.60;;
63379;SDS011;53160;55.014;73.156;2022-12-18T01:56:12;24.80;;;21.80;;
63379;SDS011;53160;55.014;73.156;2022-12-18T01:58:52;16.80;;;14.20;;
63379;SDS011;53160;55.014;73.156;2022-12-18T02:01:21;29.80;;;22.00;;
63379;SDS011;53160;55.014;73.156;2022-12-18T02:03:47;27.00;;;21.00;;
63379;SDS011;53160;55.014;73.156;2022-12-18T02:06:16;31.60;;;24.40;;
63379;SDS011;53160;55.014;73.156;2022-12-18T02:08:51;24.20;;;21.60;;
63379;SDS011;53160;55.014;73.156;2022-12-18T02:13:56;30.40;;;24.40;;
63379;SDS011;53160;55.014;73.156;2022-12-18T02:16:41;27.80;;;21.20;;
63379;SDS011;53160;55.014;73.156;2022-12-18T02:19:34;16.80;;;14.20;;
63379;SDS011;53160;55.014;73.156;2022-12-18T02:24:42;24.60;;;18.00;;
63379;SDS011;53160;55.014;73.156;2022-12-18T02:27:14;24.60;;;20.20;;
63379;SDS011;53160;55.014;73.156;2022-12-18T02:29:44;22.20;;;14.80;;
63379;SDS011;53160;55.014;73.156;2022-12-18T02:32:15;28.00;;;20.40;;
63379;SDS011;53160;55.014;73.156;2022-12-18T02:34:44;27.40;;;23.40;;
63379;SDS011;53160;55.014;73.156;2022-12-18T02:37:19;34.00;;;25.00;;
63379;SDS011;53160;55.014;73.156;2022-12-18T02:39:48;27.80;;;22.80;;
63379;SDS011;53160;55.014;73.156;2022-12-18T02:42:16;19.80;;;15.40;;
63379;SDS011;53160;55.014;73.156;2022-12-18T02:44:49;26.40;;;21.60;;
63379;SDS011;53160;55.014;73.156;2022-12-18T02:47:20;26.80;;;20.80;;
63379;SDS011;53160;55.014;73.156;2022-12-18T02:55:14;5.20;;;4.80;;
63379;SDS011;53160;55.014;73.156;2022-12-18T03:00:58;23.60;;;19.20;;
63379;SDS011;53160;55.014;73.156;2022-12-18T03:02:59;24.40;;;20.80;;
63379;SDS011;53160;55.014;73.156;2022-12-18T03:05:33;27.40;;;19.40;;
63379;SDS011;53160;55.014;73.156;2022-12-18T03:08:27;31.00;;;24.80;;
63379;SDS011;53160;55.014;73.156;2022-12-18T03:10:58;26.00;;;18.00;;
63379;SDS011;53160;55.014;73.156;2022-12-18T03:13:39;24.40;;;20.20;;
63379;SDS011;53160;55.014;73.156;2022-12-18T03:16:09;24.00;;;18.60;;
63379;SDS011;53160;55.014;73.156;2022-12-18T03:21:04;20.20;;;17.60;;
63379;SDS011;53160;55.014;73.156;2022-12-18T03:23:35;18.80;;;17.60;;
63379;SDS011;53160;55.014;73.156;2022-12-18T03:26:09;19.60;;;18.20;;
63379;SDS011;53160;55.014;73.156;2022-12-18T03:28:45;24.80;;;20.60;;
63379;SDS011;53160;55.014;73.156;2022-12-18T03:31:23;19.40;;;13.40;;
63379;SDS011;53160;55.014;73.156;2022-12-18T03:33:54;28.20;;;19.80;;
63379;SDS011;53160;55.014;73.156;2022-12-18T03:36:26;21.60;;;19.00;;
63379;SDS011;53160;55.014;73.156;2022-12-18T03:38:55;24.60;;;19.00;;
63379;SDS011;53160;55.014;73.156;2022-12-18T03:44:14;29.20;;;24.80;;
63379;SDS011;53160;55.014;73.156;2022-12-18T03:46:54;16.60;;;13.60;;
63379;SDS011;53160;55.014;73.156;2022-12-18T03:49:40;32.40;;;26.80;;
63379;SDS011;53160;55.014;73.156;2022-12-18T03:52:11;30.80;;;25.20;;
63379;SDS011;53160;55.014;73.156;2022-12-18T03:54:44;34.80;;;24.60;;
63379;SDS011;53160;55.014;73.156;2022-12-18T03:57:21;28.00;;;19.00;;
63379;SDS011;53160;55.014;73.156;2022-12-18T03:59:53;37.20;;;29.40;;
63379;SDS011;53160;55.014;73.156;2022-12-18T04:02:24;31.80;;;29.80;;
63379;SDS011;53160;55.014;73.156;2022-12-18T04:04:52;27.20;;;22.80;;
63379;SDS011;53160;55.014;73.156;2022-12-18T04:07:19;38.00;;;33.40;;
63379;SDS011;53160;55.014;73.156;2022-12-18T04:09:48;39.00;;;31.60;;
63379;SDS011;53160;55.014;73.156;2022-12-18T04:12:15;35.40;;;29.00;;
63379;SDS011;53160;55.014;73.156;2022-12-18T04:14:43;36.20;;;32.40;;
63379;SDS011;53160;55.014;73.156;2022-12-18T04:17:09;28.80;;;22.20;;
63379;SDS011;53160;55.014;73.156;2022-12-18T04:19:36;31.40;;;24.60;;
63379;SDS011;53160;55.014;73.156;2022-12-18T04:22:09;36.00;;;28.40;;
63379;SDS011;53160;55.014;73.156;2022-12-18T04:24:40;33.80;;;28.60;;
63379;SDS011;53160;55.014;73.156;2022-12-18T04:27:13;33.20;;;23.60;;
63379;SDS011;53160;55.014;73.156;2022-12-18T04:29:44;43.80;;;32.40;;
63379;SDS011;53160;55.014;73.156;2022-12-18T04:32:10;27.60;;;23.40;;
63379;SDS011;53160;55.014;73.156;2022-12-18T04:34:37;28.00;;;23.40;;
63379;SDS011;53160;55.014;73.156;2022-12-18T04:37:04;36.20;;;32.40;;
63379;SDS011;53160;55.014;73.156;2022-12-18T04:39:40;17.20;;;14.20;;
63379;SDS011;53160;55.014;73.156;2022-12-18T04:42:14;45.40;;;37.00;;
63379;SDS011;53160;55.014;73.156;2022-12-18T04:44:42;33.20;;;30.20;;
63379;SDS011;53160;55.014;73.156;2022-12-18T04:47:08;42.80;;;39.80;;
63379;SDS011;53160;55.014;73.156;2022-12-18T04:49:40;27.60;;;19.60;;
63379;SDS011;53160;55.014;73.156;2022-12-18T04:52:16;33.80;;;28.00;;
63379;SDS011;53160;55.014;73.156;2022-12-18T04:54:42;30.60;;;27.40;;
63379;SDS011;53160;55.014;73.156;2022-12-18T04:57:18;45.40;;;33.00;;
63379;SDS011;53160;55.014;73.156;2022-12-18T04:59:49;53.60;;;44.40;;
63379;SDS011;53160;55.014;73.156;2022-12-18T05:02:15;51.40;;;40.40;;
63379;SDS011;53160;55.014;73.156;2022-12-18T05:04:41;56.80;;;45.20;;
63379;SDS011;53160;55.014;73.156;2022-12-18T05:07:11;49.20;;;40.00;;
63379;SDS011;53160;55.014;73.156;2022-12-18T05:09:38;53.40;;;42.40;;
63379;SDS011;53160;55.014;73.156;2022-12-18T05:12:04;51.40;;;43.00;;
63379;SDS011;53160;55.014;73.156;2022-12-18T05:14:30;52.80;;;44.20;;
63379;SDS011;53160;55.014;73.156;2022-12-18T05:16:56;58.40;;;46.20;;
63379;SDS011;53160;55.014;73.156;2022-12-18T05:19:23;53.60;;;43.80;;
63379;SDS011;53160;55.014;73.156;2022-12-18T05:21:49;65.00;;;46.00;;
63379;SDS011;53160;55.014;73.156;2022-12-18T05:24:25;51.40;;;38.00;;
63379;SDS011;53160;55.014;73.156;2022-12-18T05:26:57;63.60;;;48.00;;
63379;SDS011;53160;55.014;73.156;2022-12-18T05:29:23;57.20;;;45.80;;
63379;SDS011;53160;55.014;73.156;2022-12-18T05:31:49;49.80;;;43.60;;
63379;SDS011;53160;55.014;73.156;2022-12-18T05:34:15;55.00;;;43.20;;
63379;SDS011;53160;55.014;73.156;2022-12-18T05:36:42;62.00;;;46.00;;
63379;SDS011;53160;55.014;73.156;2022-12-18T05:39:08;53.40;;;45.80;;
63379;SDS011;53160;55.014;73.156;2022-12-18T05:41:39;37.60;;;29.00;;
63379;SDS011;53160;55.014;73.156;2022-12-18T05:44:06;48.60;;;44.20;;
63379;SDS011;53160;55.014;73.156;2022-12-18T05:46:32;46.80;;;40.80;;
63379;SDS011;53160;55.014;73.156;2022-12-18T05:49:01;60.00;;;44.20;;
63379;SDS011;53160;55.014;73.156;2022-12-18T05:51:27;61.00;;;48.80;;
63379;SDS011;53160;55.014;73.156;2022-12-18T05:53:53;55.40;;;46.00;;
63379;SDS011;53160;55.014;73.156;2022-12-18T05:56:20;58.40;;;46.00;;
63379;SDS011;53160;55.014;73.156;2022-12-18T05:58:47;45.00;;;42.60;;
63379;SDS011;53160;55.014;73.156;2022-12-18T06:01:15;51.40;;;39.80;;
63379;SDS011;53160;55.014;73.156;2022-12-18T06:03:42;60.40;;;48.40;;
63379;SDS011;53160;55.014;73.156;2022-12-18T06:06:20;53.20;;;44.20;;
63379;SDS011;53160;55.014;73.156;2022-12-18T06:08:46;54.20;;;44.20;;
63379;SDS011;53160;55.014;73.156;2022-12-18T06:11:13;30.40;;;27.80;;
63379;SDS011;53160;55.014;73.156;2022-12-18T06:13:42;70.20;;;56.20;;
63379;SDS011;53160;55.014;73.156;2022-12-18T06:16:08;70.60;;;60.20;;
63379;SDS011;53160;55.014;73.156;2022-12-18T06:18:34;96.25;;;77.25;;
63379;SDS011;53160;55.014;73.156;2022-12-18T06:21:03;72.00;;;58.20;;
63379;SDS011;53160;55.014;73.156;2022-12-18T06:23:30;66.00;;;52.60;;
63379;SDS011;53160;55.014;73.156;2022-12-18T06:25:56;62.00;;;49.20;;
63379;SDS011;53160;55.014;73.156;2022-12-18T06:28:22;55.00;;;44.80;;
63379;SDS011;53160;55.014;73.156;2022-12-18T06:30:48;46.80;;;35.60;;
63379;SDS011;53160;55.014;73.156;2022-12-18T06:33:15;46.20;;;40.80;;
63379;SDS011;53160;55.014;73.156;2022-12-18T06:35:42;39.60;;;33.20;;
63379;SDS011;53160;55.014;73.156;2022-12-18T06:38:08;42.20;;;34.40;;
63379;SDS011;53160;55.014;73.156;2022-12-18T06:40:35;50.00;;;42.80;;
63379;SDS011;53160;55.014;73.156;2022-12-18T06:43:02;50.20;;;36.40;;
63379;SDS011;53160;55.014;73.156;2022-12-18T06:45:28;40.80;;;36.40;;
63379;SDS011;53160;55.014;73.156;2022-12-18T06:47:54;45.40;;;38.60;;
63379;SDS011;53160;55.014;73.156;2022-12-18T06:50:20;35.60;;;33.00;;
63379;SDS011;53160;55.014;73.156;2022-12-18T06:52:46;46.80;;;39.40;;
63379;SDS011;53160;55.014;73.156;2022-12-18T06:55:12;46.80;;;42.40;;
63379;SDS011;53160;55.014;73.156;2022-12-18T06:57:39;42.20;;;36.60;;
63379;SDS011;53160;55.014;73.156;2022-12-18T07:00:15;50.40;;;40.20;;
63379;SDS011;53160;55.014;73.156;2022-12-18T07:02:47;44.40;;;37.00;;
63379;SDS011;53160;55.014;73.156;2022-12-18T07:05:13;50.20;;;39.80;;
63379;SDS011;53160;55.014;73.156;2022-12-18T07:07:45;43.00;;;38.60;;
63379;SDS011;53160;55.014;73.156;2022-12-18T07:10:21;54.40;;;45.80;;
63379;SDS011;53160;55.014;73.156;2022-12-18T07:12:47;47.40;;;43.80;;
63379;SDS011;53160;55.014;73.156;2022-12-18T07:15:13;46.80;;;41.20;;
63379;SDS011;53160;55.014;73.156;2022-12-18T07:17:39;49.20;;;41.00;;
63379;SDS011;53160;55.014;73.156;2022-12-18T07:20:06;46.00;;;39.00;;
63379;SDS011;53160;55.014;73.156;2022-12-18T07:22:32;54.20;;;42.00;;
63379;SDS011;53160;55.014;73.156;2022-12-18T07:24:58;53.00;;;40.20;;
63379;SDS011;53160;55.014;73.156;2022-12-18T07:27:24;49.40;;;41.20;;
63379;SDS011;53160;55.014;73.156;2022-12-18T07:29:50;45.20;;;40.40;;
63379;SDS011;53160;55.014;73.156;2022-12-18T07:32:16;49.60;;;43.80;;
63379;SDS011;53160;55.014;73.156;2022-12-18T07:34:44;46.80;;;37.00;;
63379;SDS011;53160;55.014;73.156;2022-12-18T07:37:14;44.00;;;37.20;;
63379;SDS011;53160;55.014;73.156;2022-12-18T07:39:41;49.40;;;42.20;;
63379;SDS011;53160;55.014;73.156;2022-12-18T07:42:08;49.40;;;41.60;;
63379;SDS011;53160;55.014;73.156;2022-12-18T07:44:52;53.00;;;38.20;;
63379;SDS011;53160;55.014;73.156;2022-12-18T07:47:18;52.20;;;45.40;;
63379;SDS011;53160;55.014;73.156;2022-12-18T07:49:45;52.80;;;41.20;;
63379;SDS011;53160;55.014;73.156;2022-12-18T07:52:21;56.20;;;48.20;;
63379;SDS011;53160;55.014;73.156;2022-12-18T07:54:47;56.20;;;44.60;;
63379;SDS011;53160;55.014;73.156;2022-12-18T07:57:16;48.80;;;43.40;;
63379;SDS011;53160;55.014;73.156;2022-12-18T07:59:42;34.40;;;34.40;;
63379;SDS011;53160;55.014;73.156;2022-12-18T08:02:08;52.40;;;42.80;;
63379;SDS011;53160;55.014;73.156;2022-12-18T08:04:35;50.80;;;45.00;;
63379;SDS011;53160;55.014;73.156;2022-12-18T08:07:01;47.60;;;41.20;;
63379;SDS011;53160;55.014;73.156;2022-12-18T08:09:27;51.40;;;38.20;;
63379;SDS011;53160;55.014;73.156;2022-12-18T08:11:53;55.00;;;45.00;;
63379;SDS011;53160;55.014;73.156;2022-12-18T08:14:19;52.20;;;41.20;;
63379;SDS011;53160;55.014;73.156;2022-12-18T08:16:46;31.00;;;29.60;;
63379;SDS011;53160;55.014;73.156;2022-12-18T08:19:12;44.20;;;39.40;;
63379;SDS011;53160;55.014;73.156;2022-12-18T08:21:38;39.20;;;31.40;;
63379;SDS011;53160;55.014;73.156;2022-12-18T08:24:08;56.00;;;43.80;;
63379;SDS011;53160;55.014;73.156;2022-12-18T08:26:34;51.40;;;43.20;;
63379;SDS011;53160;55.014;73.156;2022-12-18T08:29:01;57.40;;;48.80;;
63379;SDS011;53160;55.014;73.156;2022-12-18T08:31:27;63.40;;;49.60;;
63379;SDS011;53160;55.014;73.156;2022-12-18T08:33:55;68.40;;;52.00;;
63379;SDS011;53160;55.014;73.156;2022-12-18T08:36:21;58.00;;;46.60;;
63379;SDS011;53160;55.014;73.156;2022-12-18T08:38:48;65.80;;;49.80;;
63379;SDS011;53160;55.014;73.156;2022-12-18T08:41:14;55.00;;;45.60;;
63379;SDS011;53160;55.014;73.156;2022-12-18T08:43:41;44.80;;;40.20;;
63379;SDS011;53160;55.014;73.156;2022-12-18T08:46:31;45.00;;;39.40;;
63379;SDS011;53160;55.014;73.156;2022-12-18T08:48:58;42.80;;;39.00;;
63379;SDS011;53160;55.014;73.156;2022-12-18T08:51:24;45.80;;;37.80;;
63379;SDS011;53160;55.014;73.156;2022-12-18T08:53:55;37.00;;;33.20;;
63379;SDS011;53160;55.014;73.156;2022-12-18T08:56:21;39.60;;;33.40;;
63379;SDS011;53160;55.014;73.156;2022-12-18T08:58:47;36.80;;;34.20;;
63379;SDS011;53160;55.014;73.156;2022-12-18T09:01:16;30.60;;;28.60;;
63379;SDS011;53160;55.014;73.156;2022-12-18T09:03:42;39.40;;;33.60;;
63379;SDS011;53160;55.014;73.156;2022-12-18T09:06:16;37.40;;;34.80;;
63379;SDS011;53160;55.014;73.156;2022-12-18T09:08:43;38.80;;;32.60;;
63379;SDS011;53160;55.014;73.156;2022-12-18T09:11:13;37.20;;;34.80;;
63379;SDS011;53160;55.014;73.156;2022-12-18T09:13:40;38.40;;;36.00;;
63379;SDS011;53160;55.014;73.156;2022-12-18T09:16:06;33.40;;;30.80;;
63379;SDS011;53160;55.014;73.156;2022-12-18T09:18:32;32.60;;;30.20;;
63379;SDS011;53160;55.014;73.156;2022-12-18T09:20:59;34.00;;;31.20;;
63379;SDS011;53160;55.014;73.156;2022-12-18T09:23:25;43.00;;;38.80;;
63379;SDS011;53160;55.014;73.156;2022-12-18T09:25:59;39.80;;;37.60;;
63379;SDS011;53160;55.014;73.156;2022-12-18T09:28:26;42.60;;;36.80;;
63379;SDS011;53160;55.014;73.156;2022-12-18T09:30:52;50.00;;;42.60;;
63379;SDS011;53160;55.014;73.156;2022-12-18T09:33:19;48.40;;;40.20;;
63379;SDS011;53160;55.014;73.156;2022-12-18T09:35:45;58.40;;;48.80;;
63379;SDS011;53160;55.014;73.156;2022-12-18T09:38:13;40.80;;;34.80;;
63379;SDS011;53160;55.014;73.156;2022-12-18T09:40:49;40.20;;;34.60;;
63379;SDS011;53160;55.014;73.156;2022-12-18T09:43:20;48.60;;;35.20;;
63379;SDS011;53160;55.014;73.156;2022-12-18T09:45:49;45.00;;;39.20;;
63379;SDS011;53160;55.014;73.156;2022-12-18T09:48:28;29.00;;;24.80;;
63379;SDS011;53160;55.014;73.156;2022-12-18T09:51:00;42.00;;;40.60;;
63379;SDS011;53160;55.014;73.156;2022-12-18T09:53:30;43.00;;;35.40;;
63379;SDS011;53160;55.014;73.156;2022-12-18T09:56:05;42.20;;;39.80;;
63379;SDS011;53160;55.014;73.156;2022-12-18T09:58:59;51.00;;;42.40;;
63379;SDS011;53160;55.014;73.156;2022-12-18T10:01:26;39.00;;;34.40;;
63379;SDS011;53160;55.014;73.156;2022-12-18T10:03:53;40.40;;;36.80;;
63379;SDS011;53160;55.014;73.156;2022-12-18T10:06:31;44.80;;;37.80;;
63379;SDS011;53160;55.014;73.156;2022-12-18T10:09:09;42.60;;;33.00;;
63379;SDS011;53160;55.014;73.156;2022-12-18T10:19:22;52.40;;;37.00;;
63379;SDS011;53160;55.014;73.156;2022-12-18T10:21:57;35.60;;;27.80;;
63379;SDS011;53160;55.014;73.156;2022-12-18T10:24:39;35.20;;;25.00;;
63379;SDS011;53160;55.014;73.156;2022-12-18T10:27:15;28.80;;;27.40;;
63379;SDS011;53160;55.014;73.156;2022-12-18T10:29:52;33.60;;;33.00;;
63379;SDS011;53160;55.014;73.156;2022-12-18T10:32:26;37.40;;;30.60;;
63379;SDS011;53160;55.014;73.156;2022-12-18T10:35:03;37.00;;;33.00;;
63379;SDS011;53160;55.014;73.156;2022-12-18T10:37:29;41.00;;;35.60;;
63379;SDS011;53160;55.014;73.156;2022-12-18T10:40:15;48.60;;;39.60;;
63379;SDS011;53160;55.014;73.156;2022-12-18T10:46:31;46.80;;;35.20;;
63379;SDS011;53160;55.014;73.156;2022-12-18T10:48:54;55.20;;;45.20;;
63379;SDS011;53160;55.014;73.156;2022-12-18T10:51:19;36.40;;;31.00;;
63379;SDS011;53160;55.014;73.156;2022-12-18T10:56:37;47.60;;;37.40;;
63379;SDS011;53160;55.014;73.156;2022-12-18T10:59:05;46.00;;;36.80;;
63379;SDS011;53160;55.014;73.156;2022-12-18T11:01:53;53.40;;;45.00;;
63379;SDS011;53160;55.014;73.156;2022-12-18T11:04:25;54.00;;;44.20;;
63379;SDS011;53160;55.014;73.156;2022-12-18T11:07:04;68.20;;;48.40;;
63379;SDS011;53160;55.014;73.156;2022-12-18T11:09:32;66.20;;;48.00;;
63379;SDS011;53160;55.014;73.156;2022-12-18T11:11:59;69.60;;;53.60;;
63379;SDS011;53160;55.014;73.156;2022-12-18T11:14:30;65.60;;;47.60;;
63379;SDS011;53160;55.014;73.156;2022-12-18T11:17:16;64.60;;;49.20;;
63379;SDS011;53160;55.014;73.156;2022-12-18T11:19:43;74.60;;;57.40;;
63379;SDS011;53160;55.014;73.156;2022-12-18T11:22:25;75.60;;;50.80;;
63379;SDS011;53160;55.014;73.156;2022-12-18T11:25:31;77.40;;;57.60;;
63379;SDS011;53160;55.014;73.156;2022-12-18T11:27:51;79.40;;;58.20;;
63379;SDS011;53160;55.014;73.156;2022-12-18T11:30:34;71.20;;;58.40;;
63379;SDS011;53160;55.014;73.156;2022-12-18T11:33:15;92.00;;;66.00;;
63379;SDS011;53160;55.014;73.156;2022-12-18T11:38:37;78.00;;;60.40;;
63379;SDS011;53160;55.014;73.156;2022-12-18T11:41:07;70.00;;;52.80;;
63379;SDS011;53160;55.014;73.156;2022-12-18T11:43:59;75.20;;;58.00;;
63379;SDS011;53160;55.014;73.156;2022-12-18T11:46:36;71.40;;;55.20;;
63379;SDS011;53160;55.014;73.156;2022-12-18T11:49:07;66.80;;;46.00;;
63379;SDS011;53160;55.014;73.156;2022-12-18T11:54:21;78.20;;;57.20;;
63379;SDS011;53160;55.014;73.156;2022-12-18T11:56:53;73.80;;;55.40;;
63379;SDS011;53160;55.014;73.156;2022-12-18T11:59:25;49.80;;;39.80;;
63379;SDS011;53160;55.014;73.156;2022-12-18T12:02:03;71.20;;;56.20;;
63379;SDS011;53160;55.014;73.156;2022-12-18T12:04:45;73.00;;;54.20;;
63379;SDS011;53160;55.014;73.156;2022-12-18T12:09:58;71.60;;;57.40;;
63379;SDS011;53160;55.014;73.156;2022-12-18T12:12:39;72.40;;;57.00;;
63379;SDS011;53160;55.014;73.156;2022-12-18T12:15:40;74.20;;;54.40;;
63379;SDS011;53160;55.014;73.156;2022-12-18T12:18:16;59.60;;;48.00;;
63379;SDS011;53160;55.014;73.156;2022-12-18T12:28:49;96.60;;;69.20;;
63379;SDS011;53160;55.014;73.156;2022-12-18T12:31:27;99.80;;;73.20;;
63379;SDS011;53160;55.014;73.156;2022-12-18T12:36:51;106.20;;;74.80;;
63379;SDS011;53160;55.014;73.156;2022-12-18T12:39:13;108.40;;;78.20;;
63379;SDS011;53160;55.014;73.156;2022-12-18T12:41:42;97.50;;;77.50;;
63379;SDS011;53160;55.014;73.156;2022-12-18T12:44:29;108.25;;;77.75;;
63379;SDS011;53160;55.014;73.156;2022-12-18T12:46:59;92.60;;;61.80;;
63379;SDS011;53160;55.014;73.156;2022-12-18T12:49:27;100.40;;;75.20;;
63379;SDS011;53160;55.014;73.156;2022-12-18T12:54:47;83.60;;;63.40;;
63379;SDS011;53160;55.014;73.156;2022-12-18T12:57:30;78.80;;;58.40;;
63379;SDS011;53160;55.014;73.156;2022-12-18T13:00:05;96.40;;;66.20;;
63379;SDS011;53160;55.014;73.156;2022-12-18T13:07:55;75.20;;;52.40;;
63379;SDS011;53160;55.014;73.156;2022-12-18T13:10:25;82.00;;;63.00;;
63379;SDS011;53160;55.014;73.156;2022-12-18T13:13:04;72.20;;;53.80;;
63379;SDS011;53160;55.014;73.156;2022-12-18T13:15:43;72.80;;;56.80;;
63379;SDS011;53160;55.014;73.156;2022-12-18T13:20:42;74.40;;;56.60;;
63379;SDS011;53160;55.014;73.156;2022-12-18T13:34:21;72.00;;;51.00;;
63379;SDS011;53160;55.014;73.156;2022-12-18T13:36:53;79.80;;;56.20;;
63379;SDS011;53160;55.014;73.156;2022-12-18T13:39:31;62.20;;;47.00;;
63379;SDS011;53160;55.014;73.156;2022-12-18T13:44:34;50.00;;;35.20;;
63379;SDS011;53160;55.014;73.156;2022-12-18T13:47:01;71.60;;;54.20;;
63379;SDS011;53160;55.014;73.156;2022-12-18T13:49:38;71.80;;;52.20;;
63379;SDS011;53160;55.014;73.156;2022-12-18T13:52:18;70.00;;;50.40;;
63379;SDS011;53160;55.014;73.156;2022-12-18T13:54:47;66.80;;;52.60;;
63379;SDS011;53160;55.014;73.156;2022-12-18T13:57:27;67.40;;;51.80;;
63379;SDS011;53160;55.014;73.156;2022-12-18T13:59:54;50.20;;;41.00;;
63379;SDS011;53160;55.014;73.156;2022-12-18T14:02:27;55.00;;;47.00;;
63379;SDS011;53160;55.014;73.156;2022-12-18T14:04:54;66.00;;;51.20;;
63379;SDS011;53160;55.014;73.156;2022-12-18T14:07:28;70.60;;;51.20;;
63379;SDS011;53160;55.014;73.156;2022-12-18T14:09:55;73.60;;;54.20;;
63379;SDS011;53160;55.014;73.156;2022-12-18T14:12:27;76.00;;;60.00;;
63379;SDS011;53160;55.014;73.156;2022-12-18T14:17:49;67.80;;;51.60;;
63379;SDS011;53160;55.014;73.156;2022-12-18T14:20:18;65.80;;;48.60;;
63379;SDS011;53160;55.014;73.156;2022-12-18T14:22:48;71.20;;;55.60;;
63379;SDS011;53160;55.014;73.156;2022-12-18T14:25:19;58.80;;;47.60;;
63379;SDS011;53160;55.014;73.156;2022-12-18T14:30:37;73.00;;;57.20;;
63379;SDS011;53160;55.014;73.156;2022-12-18T14:33:11;77.00;;;59.00;;
63379;SDS011;53160;55.014;73.156;2022-12-18T14:35:39;82.80;;;61.80;;
63379;SDS011;53160;55.014;73.156;2022-12-18T14:40:59;92.80;;;70.00;;
63379;SDS011;53160;55.014;73.156;2022-12-18T14:43:26;48.20;;;45.00;;
63379;SDS011;53160;55.014;73.156;2022-12-18T14:45:53;75.80;;;57.60;;
63379;SDS011;53160;55.014;73.156;2022-12-18T14:53:37;76.20;;;59.60;;
63379;SDS011;53160;55.014;73.156;2022-12-18T14:56:13;90.00;;;65.80;;
63379;SDS011;53160;55.014;73.156;2022-12-18T14:58:44;91.80;;;69.00;;
63379;SDS011;53160;55.014;73.156;2022-12-18T15:01:19;89.80;;;69.60;;
63379;SDS011;53160;55.014;73.156;2022-12-18T15:03:56;94.20;;;68.40;;
63379;SDS011;53160;55.014;73.156;2022-12-18T15:09:24;91.00;;;67.00;;
63379;SDS011;53160;55.014;73.156;2022-12-18T15:12:00;84.80;;;65.20;;
63379;SDS011;53160;55.014;73.156;2022-12-18T15:17:02;78.40;;;62.20;;
63379;SDS011;53160;55.014;73.156;2022-12-18T15:19:34;83.80;;;60.00;;
63379;SDS011;53160;55.014;73.156;2022-12-18T15:22:01;73.20;;;58.60;;
63379;SDS011;53160;55.014;73.156;2022-12-18T15:24:29;81.20;;;59.60;;
63379;SDS011;53160;55.014;73.156;2022-12-18T15:26:56;75.00;;;58.00;;
63379;SDS011;53160;55.014;73.156;2022-12-18T15:29:32;60.80;;;52.00;;
63379;SDS011;53160;55.014;73.156;2022-12-18T15:31:59;90.80;;;60.40;;
63379;SDS011;53160;55.014;73.156;2022-12-18T15:34:37;78.00;;;58.00;;
63379;SDS011;53160;55.014;73.156;2022-12-18T15:37:13;78.00;;;57.80;;
63379;SDS011;53160;55.014;73.156;2022-12-18T15:39:39;70.60;;;53.60;;
63379;SDS011;53160;55.014;73.156;2022-12-18T15:42:07;83.80;;;60.80;;
63379;SDS011;53160;55.014;73.156;2022-12-18T15:44:52;80.60;;;58.40;;
63379;SDS011;53160;55.014;73.156;2022-12-18T15:47:18;79.80;;;61.00;;
63379;SDS011;53160;55.014;73.156;2022-12-18T15:49:44;77.20;;;57.80;;
63379;SDS011;53160;55.014;73.156;2022-12-18T15:52:20;76.00;;;55.00;;
63379;SDS011;53160;55.014;73.156;2022-12-18T15:55:01;57.40;;;45.40;;
63379;SDS011;53160;55.014;73.156;2022-12-18T15:57:51;42.60;;;28.20;;
63379;SDS011;53160;55.014;73.156;2022-12-18T16:00:21;67.40;;;51.20;;
63379;SDS011;53160;55.014;73.156;2022-12-18T16:02:48;60.00;;;48.40;;
63379;SDS011;53160;55.014;73.156;2022-12-18T16:05:15;65.40;;;49.00;;
63379;SDS011;53160;55.014;73.156;2022-12-18T16:07:43;58.60;;;48.00;;